createdAt,value
2022-08-28T06:51:38.237Z,15.6
2022-08-28T06:51:43.519Z,15.6
2022-08-28T07:01:44.221Z,15.8
2022-08-28T07:21:44.873Z,16.2
2022-08-28T07:31:45.329Z,16.7
2022-08-28T07:51:46.607Z,17.7
2022-08-28T08:01:47.200Z,17.8
2022-08-28T08:11:47.869Z,18.1
2022-08-28T08:21:49.203Z,18.7
2022-08-28T08:31:49.594Z,18.8
2022-08-28T09:11:56.410Z,18.5
2022-08-28T09:21:52.805Z,18.9
2022-08-28T09:31:53.115Z,19.5
2022-08-28T09:41:53.473Z,20.3
2022-08-28T09:51:53.933Z,20.7
2022-08-28T10:01:54.354Z,20.6
2022-08-28T10:11:54.585Z,20.6
2022-08-28T10:52:04.495Z,21.3
2022-08-28T11:01:57.415Z,21.7
2022-08-28T11:12:01.719Z,21.2
2022-08-28T11:21:59.026Z,21.9
2022-08-28T11:41:59.493Z,22.1
2022-08-28T11:51:59.708Z,22.2
2022-08-28T12:02:00.445Z,22
2022-08-28T12:12:00.627Z,22
2022-08-28T12:22:00.798Z,21.4
2022-08-28T12:32:01.701Z,22.4
2022-08-28T12:42:02.580Z,22.7
2022-08-28T12:52:02.791Z,22.6
2022-08-28T13:02:03.221Z,23.2
2022-08-28T13:12:04.019Z,22.1
2022-08-28T13:32:04.549Z,22.8
2022-08-28T13:52:05.455Z,23.5
2022-08-28T14:02:06.119Z,22.6
2022-08-28T14:12:06.130Z,23.8
2022-08-28T14:22:06.909Z,23.2
2022-08-28T14:32:07.163Z,23.5
2022-08-28T14:42:11.605Z,22.8
2022-08-28T14:52:08.965Z,23.1
2022-08-28T15:02:16.880Z,23.3
2022-08-28T15:12:10.218Z,23
2022-08-28T15:22:20.096Z,23.2
2022-08-28T15:32:11.399Z,22.9
2022-08-28T15:42:19.132Z,22.9
2022-08-28T15:52:12.685Z,23.1
2022-08-28T16:02:13.231Z,22.9
2022-08-28T16:12:13.766Z,22.7
2022-08-28T16:22:14.750Z,22.8
2022-08-28T16:32:14.958Z,22.5
2022-08-28T16:42:15.320Z,22.4
2022-08-28T17:02:16.629Z,22.2
2022-08-28T17:12:17.045Z,22
2022-08-28T17:22:17.833Z,21.8
2022-08-28T17:32:18.621Z,21.6
2022-08-28T17:42:19.338Z,21.6
2022-08-28T17:52:20.340Z,21.4
2022-08-28T18:22:25.414Z,20.5
2022-08-28T18:32:23.211Z,20.4
2022-08-28T18:42:23.374Z,20.2
2022-08-28T18:52:23.554Z,19.8
2022-08-28T19:02:23.760Z,19.6
2022-08-28T19:12:31.480Z,19.4
2022-08-28T19:22:25.462Z,19.3
2022-08-28T19:32:27.132Z,19
2022-08-28T19:42:26.403Z,18.9
2022-08-28T20:02:27.650Z,18.4
2022-08-28T20:22:28.482Z,18
2022-08-28T20:32:29.180Z,17.7
2022-08-28T20:52:29.967Z,17.3
2022-08-28T21:22:31.907Z,16.9
2022-08-28T22:22:35.273Z,15.5
2022-08-28T22:42:36.492Z,15.1
2022-08-28T22:52:37.352Z,14.9
2022-08-28T23:02:37.902Z,14.8
2022-08-28T23:12:38.297Z,14.7
2022-08-28T23:22:38.980Z,14.6
2022-08-28T23:32:39.259Z,14.5
2022-08-28T23:42:40.051Z,14.2
2022-08-28T23:52:40.136Z,14
